Time;durP1;ratioP1;P1;durP2;ratioP2;P2;SDS_P1;SDS_P2;PMS_P1;PMS_P2;Temp;Humidity;BMP_temperature;BMP_pressure;BME280_temperature;BME280_humidity;BME280_pressure;Samples;Min_cycle;Max_cycle;Signal;HPM_P1;HPM_P2
2023/01/28 00:02:20;;;;;;;10.67;8.87;;;;;;;1.72;100.00;102746.81;5047606;28;20059;-64
2023/01/28 00:04:45;;;;;;;10.90;9.20;;;;;;;1.72;100.00;102739.13;5045918;28;20044;-64
2023/01/28 00:07:11;;;;;;;11.10;9.50;;;;;;;1.71;100.00;102742.47;5047182;28;20028;-64
2023/01/28 00:09:38;;;;;;;10.53;8.40;;;;;;;1.71;100.00;102747.56;5047037;28;20409;-64
2023/01/28 00:12:03;;;;;;;11.03;8.97;;;;;;;1.69;100.00;102744.88;5046742;28;20240;-64
2023/01/28 00:14:29;;;;;;;10.90;8.83;;;;;;;1.68;100.00;102748.16;5046630;28;20161;-64
2023/01/28 00:16:54;;;;;;;11.77;10.50;;;;;;;1.66;100.00;102753.13;5051896;28;20055;-64
2023/01/28 00:19:19;;;;;;;9.77;8.70;;;;;;;1.64;100.00;102741.84;5059001;28;20044;-64
2023/01/28 00:21:44;;;;;;;10.20;9.13;;;;;;;1.64;100.00;102746.03;5050768;28;20021;-64
2023/01/28 00:24:10;;;;;;;10.17;8.93;;;;;;;1.61;100.00;102751.78;5050555;28;20480;-64
2023/01/28 00:26:35;;;;;;;10.30;8.93;;;;;;;1.57;100.00;102749.66;5050980;28;20194;-64
2023/01/28 00:29:01;;;;;;;10.20;8.53;;;;;;;1.57;100.00;102752.19;5050236;28;20056;-64
2023/01/28 00:31:27;;;;;;;10.07;8.80;;;;;;;1.57;100.00;102754.75;5051028;28;20025;-64
2023/01/28 00:33:54;;;;;;;10.53;8.87;;;;;;;1.55;100.00;102751.13;5050539;28;20050;-64
2023/01/28 00:36:22;;;;;;;11.90;9.20;;;;;;;1.56;100.00;102763.19;5062792;28;20048;-64
2023/01/28 00:38:52;;;;;;;10.90;8.90;;;;;;;1.55;100.00;102761.38;5050311;28;20032;-64
2023/01/28 00:41:20;;;;;;;10.40;9.15;;;;;;;1.57;100.00;102764.97;5050866;28;20468;-64
2023/01/28 00:43:46;;;;;;;11.60;9.63;;;;;;;1.55;100.00;102764.84;5050721;28;20040;-64
2023/01/28 00:46:15;;;;;;;11.03;9.13;;;;;;;1.56;100.00;102768.31;5050514;28;20123;-64
2023/01/28 00:48:41;;;;;;;12.43;10.43;;;;;;;1.54;100.00;102757.94;5049322;28;20078;-64
2023/01/28 00:51:08;;;;;;;12.83;10.30;;;;;;;1.56;100.00;102763.19;5049995;28;20065;-64
2023/01/28 00:53:35;;;;;;;12.77;10.57;;;;;;;1.54;100.00;102765.59;5050102;28;20032;-64
2023/01/28 00:56:00;;;;;;;12.03;9.83;;;;;;;1.56;100.00;102768.31;5050730;28;20431;-64
2023/01/28 00:58:26;;;;;;;12.67;10.50;;;;;;;1.54;100.00;102769.78;5049655;28;20078;-64
2023/01/28 01:00:51;;;;;;;12.27;10.50;;;;;;;1.53;100.00;102773.13;5053162;28;20013;-64
2023/01/28 01:03:17;;;;;;;11.20;10.00;;;;;;;1.51;100.00;102772.06;5049814;28;20067;-64
2023/01/28 01:05:43;;;;;;;11.70;8.80;;;;;;;1.51;100.00;102774.59;5050135;28;20051;-64
2023/01/28 01:08:08;;;;;;;11.87;9.87;;;;;;;1.51;100.00;102769.50;5049673;28;20514;-64
2023/01/28 01:10:34;;;;;;;12.83;10.90;;;;;;;1.50;100.00;102768.59;5049963;28;20074;-64
2023/01/28 01:12:59;;;;;;;11.80;10.27;;;;;;;1.50;100.00;102763.47;5049503;28;20017;-64
2023/01/28 01:15:25;;;;;;;11.80;10.27;;;;;;;1.51;100.00;102764.38;5050155;28;20500;-64
2023/01/28 01:17:50;;;;;;;11.43;10.13;;;;;;;1.51;100.00;102769.50;5049881;28;20021;-64
2023/01/28 01:20:25;;;;;;;12.23;10.53;;;;;;;1.51;100.00;102765.25;5050398;28;20037;-64
2023/01/28 01:22:51;;;;;;;11.97;10.07;;;;;;;1.49;100.00;102766.78;5050126;28;20547;-63
2023/01/28 01:25:17;;;;;;;11.87;9.50;;;;;;;1.50;100.00;102772.78;5050201;28;20028;-64
2023/01/28 01:27:46;;;;;;;12.47;10.53;;;;;;;1.48;100.00;102766.59;5050203;28;20104;-64
2023/01/28 01:30:12;;;;;;;11.57;10.33;;;;;;;1.48;100.00;102764.97;5048757;28;20036;-64
2023/01/28 01:32:38;;;;;;;12.00;10.00;;;;;;;1.48;100.00;102758.94;5049055;28;20021;-64
2023/01/28 01:35:07;;;;;;;11.63;10.10;;;;;;;1.47;100.00;102765.72;5049116;28;20301;-64
2023/01/28 01:37:36;;;;;;;12.03;9.97;;;;;;;1.48;100.00;102761.50;5059259;28;20031;-64
2023/01/28 01:40:03;;;;;;;11.43;9.10;;;;;;;1.48;100.00;102764.06;5051921;28;20020;-64
2023/01/28 01:42:30;;;;;;;12.17;10.87;;;;;;;1.47;100.00;102762.25;5049407;28;20016;-64
2023/01/28 01:45:04;;;;;;;12.43;11.13;;;;;;;1.46;100.00;102755.34;5049435;28;20021;-64
2023/01/28 01:47:44;;;;;;;12.43;10.47;;;;;;;1.46;100.00;102765.59;5048817;28;20381;-64
2023/01/28 01:50:31;;;;;;;11.45;9.82;;;;;;;1.45;100.00;102769.78;5052486;28;20124;-64
2023/01/28 01:53:01;;;;;;;12.63;10.10;;;;;;;1.44;100.00;102767.94;5052000;28;20056;-64
2023/01/28 01:55:30;;;;;;;11.60;10.10;;;;;;;1.44;100.00;102773.97;5049867;28;20063;-64
2023/01/28 01:58:01;;;;;;;13.53;10.93;;;;;;;1.43;100.00;102772.19;5057850;28;20020;-64
2023/01/28 02:00:26;;;;;;;13.07;10.70;;;;;;;1.43;100.00;102767.06;5049198;28;20071;-64
2023/01/28 02:02:53;;;;;;;12.40;11.10;;;;;;;1.43;100.00;102771.28;5048481;28;20029;-64
2023/01/28 02:05:21;;;;;;;13.53;11.33;;;;;;;1.41;100.00;102778.78;5052287;28;20032;-64
2023/01/28 02:07:49;;;;;;;11.47;10.23;;;;;;;1.41;100.00;102777.88;5049265;28;20246;-64
2023/01/28 02:10:15;;;;;;;11.40;10.10;;;;;;;1.40;100.00;102781.19;5049398;28;20086;-64
2023/01/28 02:12:47;;;;;;;13.13;10.57;;;;;;;1.40;100.00;102776.97;5048405;28;20506;-64
2023/01/28 02:15:19;;;;;;;14.47;11.33;;;;;;;1.39;100.00;102785.41;5048423;28;20060;-64
2023/01/28 02:17:46;;;;;;;12.43;10.37;;;;;;;1.37;100.00;102776.66;5056488;28;20039;-64
2023/01/28 02:20:24;;;;;;;13.10;11.33;;;;;;;1.35;100.00;102778.16;5053675;28;20082;-64
2023/01/28 02:23:18;;;;;;;13.80;11.20;;;;;;;1.33;100.00;102772.00;5048275;28;20103;-64
2023/01/28 02:26:14;;;;;;;12.63;10.50;;;;;;;1.33;100.00;102769.47;5048972;28;20025;-64
2023/01/28 02:28:48;;;;;;;12.47;9.90;;;;;;;1.33;100.00;102779.69;5052988;28;20051;-64
2023/01/28 02:31:29;;;;;;;12.70;10.87;;;;;;;1.32;100.00;102767.63;5056105;28;20141;-64
2023/01/28 02:34:04;;;;;;;;;;;;;;;1.30;100.00;102770.03;5048414;28;20513;-64
2023/01/28 02:36:34;;;;;;;12.50;11.03;;;;;;;1.29;100.00;102768.25;5048412;28;19915;-64
2023/01/28 02:39:06;;;;;;;12.52;10.50;;;;;;;1.28;100.00;102768.06;5048329;28;20021;-64
2023/01/28 02:41:36;;;;;;;13.10;10.47;;;;;;;1.27;100.00;102771.38;5048336;28;20093;-64
2023/01/28 02:44:02;;;;;;;13.07;11.30;;;;;;;1.27;100.00;102773.94;5047811;28;20037;-64
2023/01/28 02:49:17;;;;;;;13.27;10.13;;;;;;;1.26;100.00;102769.59;5047700;28;20126;-63
2023/01/28 02:52:11;;;;;;;13.45;10.48;;;;;;;1.25;100.00;102775.44;5047900;28;20633;-64
2023/01/28 02:55:08;;;;;;;12.90;10.13;;;;;;;1.25;100.00;102784.00;5052816;28;20077;-64
2023/01/28 02:57:46;;;;;;;12.87;10.87;;;;;;;1.24;100.00;102781.28;5053771;28;20305;-64
2023/01/28 03:00:11;;;;;;;12.93;10.70;;;;;;;1.25;100.00;102785.66;5056047;28;20037;-64
2023/01/28 03:02:53;;;;;;;12.97;10.70;;;;;;;1.25;100.00;102777.97;5047564;28;20024;-64
2023/01/28 03:05:27;;;;;;;12.73;10.20;;;;;;;1.24;100.00;102786.41;5047775;28;20016;-64
2023/01/28 03:07:53;;;;;;;12.80;10.37;;;;;;;1.25;100.00;102783.09;5047233;28;20441;-64
2023/01/28 03:10:21;;;;;;;12.13;10.73;;;;;;;1.25;100.00;102785.66;5047513;28;20277;-64
2023/01/28 03:38:22;;;;;;;10.33;9.07;;;;;;;1.15;100.00;102797.47;5047845;28;20595;-64
2023/01/28 03:40:59;;;;;;;9.40;8.50;;;;;;;1.15;100.00;102787.25;5047011;28;20021;-64
2023/01/28 03:43:24;;;;;;;9.57;8.23;;;;;;;1.15;100.00;102789.81;5051435;28;20384;-64
2023/01/28 03:45:50;;;;;;;9.23;8.23;;;;;;;1.16;100.00;102800.94;5049210;28;20034;-64
2023/01/28 03:48:19;;;;;;;9.47;7.77;;;;;;;1.14;100.00;102793.13;5062414;28;20063;-64
2023/01/28 03:50:46;;;;;;;9.53;7.93;;;;;;;1.13;100.00;102783.66;5054656;28;20489;-64
2023/01/28 03:53:13;;;;;;;9.57;8.33;;;;;;;1.13;100.00;102786.22;5054934;28;20071;-63
2023/01/28 03:55:38;;;;;;;9.60;7.77;;;;;;;1.14;100.00;102787.09;5046933;28;20503;-64
2023/01/28 03:58:04;;;;;;;9.47;7.33;;;;;;;1.12;100.00;102792.06;5046993;28;20021;-63
2023/01/28 04:00:31;;;;;;;8.90;7.53;;;;;;;1.11;100.00;102791.91;5062090;28;20028;-64
2023/01/28 04:02:56;;;;;;;8.60;7.37;;;;;;;1.08;100.00;102795.94;5046558;28;20021;-64
2023/01/28 04:05:22;;;;;;;11.60;8.00;;;;;;;1.08;100.00;102798.50;5047261;28;20037;-64
2023/01/28 04:07:50;;;;;;;8.43;7.53;;;;;;;1.10;100.00;102801.22;5046673;28;20054;-64
2023/01/28 04:10:16;;;;;;;9.37;8.37;;;;;;;1.10;100.00;102800.31;5046225;28;20108;-64
2023/01/28 04:12:41;;;;;;;9.50;8.40;;;;;;;1.10;100.00;102808.88;5047123;28;20112;-64
2023/01/28 04:15:14;;;;;;;9.73;8.73;;;;;;;1.08;100.00;102813.81;5046760;28;20071;-63
2023/01/28 04:17:42;;;;;;;9.73;8.67;;;;;;;1.10;100.00;102815.66;5046606;28;20481;-64
2023/01/28 04:20:09;;;;;;;10.47;8.97;;;;;;;1.08;100.00;102812.91;5046791;28;20358;-64
2023/01/28 04:22:34;;;;;;;10.63;9.53;;;;;;;1.07;100.00;102814.59;5046331;28;20025;-63
2023/01/28 04:24:59;;;;;;;11.00;9.43;;;;;;;1.08;100.00;102807.81;5046489;28;20021;-64
2023/01/28 04:27:24;;;;;;;11.20;9.50;;;;;;;1.07;100.00;102813.66;5046527;28;20032;-63
2023/01/28 04:29:50;;;;;;;12.90;10.10;;;;;;;1.08;100.00;102818.94;5046863;28;20036;-64
2023/01/28 04:32:15;;;;;;;11.57;10.37;;;;;;;1.05;100.00;102810.06;5059305;28;20028;-64
2023/01/28 04:34:40;;;;;;;11.57;10.03;;;;;;;1.04;100.00;102811.69;5046310;28;20029;-64
2023/01/28 04:37:05;;;;;;;12.93;10.70;;;;;;;1.02;100.00;102807.19;5046235;28;20534;-64
2023/01/28 04:39:31;;;;;;;11.77;9.73;;;;;;;1.01;100.00;102806.28;5058761;28;20025;-63
2023/01/28 04:41:56;;;;;;;11.73;10.40;;;;;;;1.02;100.00;102802.09;5046423;28;20029;-64
2023/01/28 04:44:21;;;;;;;13.63;11.47;;;;;;;1.01;100.00;102810.50;5046937;28;20428;-64
2023/01/28 04:46:46;;;;;;;12.40;10.60;;;;;;;0.99;100.00;102804.34;5045968;28;20549;-64
2023/01/28 04:49:12;;;;;;;14.17;9.77;;;;;;;0.98;100.00;102802.50;5046604;28;20280;-64
2023/01/28 04:51:37;;;;;;;13.83;11.20;;;;;;;0.97;100.00;102801.63;5046279;28;20048;-64
2023/01/28 04:54:02;;;;;;;13.07;10.90;;;;;;;0.98;100.00;102805.97;5046493;28;20025;-64
2023/01/28 04:56:28;;;;;;;12.27;10.40;;;;;;;0.98;100.00;102803.41;5046391;28;20028;-63
2023/01/28 04:58:53;;;;;;;12.00;10.10;;;;;;;0.97;100.00;102808.38;5046106;28;20464;-64
2023/01/28 05:01:18;;;;;;;11.63;9.80;;;;;;;0.95;100.00;102821.00;5046495;28;20025;-63
2023/01/28 05:03:43;;;;;;;13.17;10.60;;;;;;;0.94;100.00;102812.41;5046230;28;20027;-64
2023/01/28 05:06:09;;;;;;;11.77;10.07;;;;;;;0.96;100.00;102817.69;5050304;28;20036;-64
2023/01/28 05:08:34;;;;;;;12.60;10.53;;;;;;;0.95;100.00;102816.75;5066657;28;20170;-64
2023/01/28 05:10:59;;;;;;;12.83;11.00;;;;;;;0.94;100.00;102814.97;5059320;28;20477;-63
2023/01/28 05:13:25;;;;;;;13.93;11.17;;;;;;;0.94;100.00;102820.06;5062771;28;20027;-64
2023/01/28 05:15:52;;;;;;;14.10;10.27;;;;;;;0.94;100.00;102822.63;5050216;28;20031;-64
2023/01/28 05:18:17;;;;;;;12.37;9.97;;;;;;;0.93;100.00;102818.28;5049264;28;20511;-64
2023/01/28 05:20:42;;;;;;;14.00;11.23;;;;;;;0.92;100.00;102826.66;5049924;28;20029;-64
2023/01/28 05:23:07;;;;;;;12.67;10.40;;;;;;;0.92;100.00;102830.84;5049810;28;20032;-64
2023/01/28 05:25:33;;;;;;;13.57;10.80;;;;;;;0.91;100.00;102829.97;5049658;28;20476;-64
2023/01/28 05:27:58;;;;;;;11.70;10.13;;;;;;;0.89;100.00;102818.69;5061845;28;20017;-64
2023/01/28 05:30:23;;;;;;;14.00;11.17;;;;;;;0.87;100.00;102817.63;5049616;28;20054;-64
2023/01/28 05:32:49;;;;;;;12.40;10.03;;;;;;;0.86;100.00;102815.84;5049955;28;20405;-64
2023/01/28 05:35:14;;;;;;;12.77;10.70;;;;;;;0.85;100.00;102818.25;5050020;28;20385;-64
2023/01/28 05:37:39;;;;;;;12.03;10.23;;;;;;;0.84;100.00;102817.31;5061972;28;20024;-64
2023/01/28 05:40:05;;;;;;;13.13;9.97;;;;;;;0.82;100.00;102813.69;5049486;28;20013;-64
2023/01/28 05:42:30;;;;;;;11.93;9.73;;;;;;;0.81;100.00;102809.34;5049131;28;20017;-63
2023/01/28 05:44:56;;;;;;;11.97;10.00;;;;;;;0.82;100.00;102813.69;5048926;28;20027;-63
2023/01/28 05:47:21;;;;;;;12.67;10.43;;;;;;;0.82;100.00;102811.16;5049021;28;20021;-64
2023/01/28 05:49:46;;;;;;;12.03;10.13;;;;;;;0.82;100.00;102814.63;5049046;28;20606;-64
2023/01/28 05:52:11;;;;;;;13.57;11.17;;;;;;;0.82;100.00;102811.16;5047961;28;20044;-64
2023/01/28 05:54:37;;;;;;;11.07;9.83;;;;;;;0.81;100.00;102806.81;5048684;28;20033;-64
2023/01/28 05:57:02;;;;;;;10.27;9.00;;;;;;;0.79;100.00;102814.28;5050475;28;20056;-63
2023/01/28 05:59:28;;;;;;;10.80;9.30;;;;;;;0.78;100.00;102819.22;5054216;28;20024;-63
2023/01/28 06:01:53;;;;;;;9.93;8.50;;;;;;;0.76;100.00;102823.25;5052392;28;20086;-63
2023/01/28 06:04:19;;;;;;;9.00;7.97;;;;;;;0.74;100.00;102824.78;5050771;28;20017;-64
2023/01/28 06:06:45;;;;;;;9.20;8.30;;;;;;;0.74;100.00;102829.88;5053987;28;20022;-63
2023/01/28 06:09:10;;;;;;;9.13;7.93;;;;;;;0.71;100.00;102821.16;5048595;28;20025;-63
2023/01/28 06:11:35;;;;;;;9.70;7.43;;;;;;;0.71;100.00;102826.25;5052742;28;20404;-64
2023/01/28 06:14:00;;;;;;;8.07;7.27;;;;;;;0.70;100.00;102831.22;5049304;28;20090;-63
2023/01/28 06:16:26;;;;;;;8.90;7.63;;;;;;;0.70;100.00;102823.56;5050191;28;20547;-64
2023/01/28 06:18:51;;;;;;;9.00;8.10;;;;;;;0.69;100.00;102826.81;5054823;28;20405;-64
2023/01/28 06:21:16;;;;;;;8.37;7.57;;;;;;;0.69;100.00;102827.75;5054094;28;20029;-64
2023/01/28 06:23:42;;;;;;;9.17;8.17;;;;;;;0.69;100.00;102837.94;5055091;28;20035;-63
2023/01/28 06:26:07;;;;;;;9.17;7.97;;;;;;;0.68;100.00;102825.94;5056299;28;20024;-64
2023/01/28 06:28:32;;;;;;;8.60;7.70;;;;;;;0.67;100.00;102834.34;5057022;28;20027;-63
2023/01/28 06:30:57;;;;;;;8.40;7.60;;;;;;;0.65;100.00;102828.16;5058014;28;20936;-64
2023/01/28 06:33:23;;;;;;;9.57;8.57;;;;;;;0.65;100.00;102829.81;5056600;28;20771;-64
2023/01/28 06:35:48;;;;;;;9.23;8.17;;;;;;;0.65;100.00;102834.94;5057404;28;20127;-64
2023/01/28 06:38:14;;;;;;;9.53;7.87;;;;;;;0.64;100.00;102839.13;5056768;28;20076;-64
2023/01/28 06:40:39;;;;;;;9.53;8.53;;;;;;;0.63;100.00;102839.84;5056942;28;20098;-63
2023/01/28 06:43:05;;;;;;;9.23;7.90;;;;;;;0.63;100.00;102834.75;5059110;28;20393;-63
2023/01/28 06:45:31;;;;;;;9.07;7.87;;;;;;;0.61;100.00;102831.16;5057983;28;20070;-63
2023/01/28 06:47:57;;;;;;;9.23;7.90;;;;;;;0.61;100.00;102838.81;5056434;28;20365;-64
2023/01/28 06:50:22;;;;;;;9.70;7.97;;;;;;;0.61;100.00;102843.91;5056104;28;20036;-64
2023/01/28 06:52:47;;;;;;;9.93;8.90;;;;;;;0.61;100.00;102843.00;5055292;28;20438;-63
2023/01/28 06:55:13;;;;;;;9.83;8.73;;;;;;;0.60;100.00;102836.97;5058315;28;20438;-63
2023/01/28 06:57:40;;;;;;;9.80;8.17;;;;;;;0.61;100.00;102850.66;5060851;28;20052;-63
2023/01/28 07:00:10;;;;;;;10.80;9.63;;;;;;;0.62;100.00;102848.25;5054273;28;21097;-64
2023/01/28 07:02:36;;;;;;;9.47;8.20;;;;;;;0.60;100.00;102847.19;5050384;28;20074;-63
2023/01/28 07:05:02;;;;;;;9.83;8.60;;;;;;;0.59;100.00;102847.94;5047778;28;20469;-64
2023/01/28 07:07:27;;;;;;;10.50;8.93;;;;;;;0.57;100.00;102855.44;5049065;28;20380;-64
2023/01/28 07:09:52;;;;;;;10.23;9.00;;;;;;;0.58;100.00;102851.22;5050509;28;20037;-63
2023/01/28 07:12:18;;;;;;;9.97;8.30;;;;;;;0.57;100.00;102851.97;5050768;28;20033;-63
2023/01/28 07:14:43;;;;;;;10.67;9.27;;;;;;;0.55;100.00;102858.56;5047610;28;20029;-63
2023/01/28 07:17:08;;;;;;;9.77;8.43;;;;;;;0.56;100.00;102856.16;5050895;28;20472;-63
2023/01/28 07:19:34;;;;;;;10.00;8.60;;;;;;;0.56;100.00;102852.69;5046015;28;20025;-64
2023/01/28 07:22:01;;;;;;;9.70;8.67;;;;;;;0.54;100.00;102861.88;5051283;28;20463;-64
2023/01/28 07:24:27;;;;;;;9.87;8.80;;;;;;;0.52;100.00;102869.34;5046501;28;20575;-63
2023/01/28 07:26:52;;;;;;;10.00;8.43;;;;;;;0.52;100.00;102873.56;5049141;28;20461;-64
2023/01/28 07:29:18;;;;;;;9.97;8.83;;;;;;;0.53;100.00;102883.00;5045391;28;20370;-64
2023/01/28 07:31:43;;;;;;;10.53;8.90;;;;;;;0.53;100.00;102880.47;5052835;28;20075;-63
2023/01/28 07:34:08;;;;;;;10.20;8.73;;;;;;;0.52;100.00;102883.75;5043888;28;20025;-64
2023/01/28 07:36:33;;;;;;;10.87;8.93;;;;;;;0.51;100.00;102882.84;5052898;28;20065;-63
2023/01/28 07:38:59;;;;;;;10.97;9.17;;;;;;;0.50;100.00;102880.16;5049116;28;20024;-63
2023/01/28 07:41:24;;;;;;;9.53;8.37;;;;;;;0.47;100.00;102881.63;5052374;28;20017;-64
2023/01/28 07:43:49;;;;;;;10.80;9.10;;;;;;;0.46;100.00;102878.91;5049695;28;20027;-64
2023/01/28 07:46:14;;;;;;;11.27;9.53;;;;;;;0.45;100.00;102883.09;5047460;28;20078;-63
2023/01/28 07:48:40;;;;;;;9.53;8.53;;;;;;;0.45;100.00;102883.09;5054535;28;20037;-64
2023/01/28 07:51:05;;;;;;;11.30;8.97;;;;;;;0.45;100.00;102882.22;5048316;28;20076;-64
2023/01/28 07:53:31;;;;;;;12.67;9.57;;;;;;;0.44;100.00;102891.50;5050577;28;20036;-64
2023/01/28 07:56:00;;;;;;;11.00;8.83;;;;;;;0.42;100.00;102890.44;5052094;28;20094;-64
2023/01/28 07:58:26;;;;;;;12.07;8.77;;;;;;;0.45;100.00;102903.50;5050930;28;20024;-64
2023/01/28 08:00:56;;;;;;;11.87;10.00;;;;;;;0.45;100.00;102902.63;5049193;28;20037;-64
2023/01/28 08:03:21;;;;;;;12.03;10.20;;;;;;;0.46;100.00;102904.44;5047291;28;20064;-63
2023/01/28 08:05:50;;;;;;;11.73;10.13;;;;;;;0.45;100.00;102902.63;5047350;28;20485;-62
2023/01/28 08:08:15;;;;;;;12.20;9.90;;;;;;;0.46;100.00;102900.25;5049274;28;20495;-62
2023/01/28 08:10:42;;;;;;;11.47;9.67;;;;;;;0.45;100.00;102889.88;5049272;28;20032;-63
2023/01/28 08:13:09;;;;;;;12.70;10.10;;;;;;;0.45;100.00;102898.41;5045103;28;20062;-63
2023/01/28 08:15:35;;;;;;;11.43;9.90;;;;;;;0.44;100.00;102901.72;5049836;28;20033;-63
2023/01/28 08:18:01;;;;;;;11.87;9.90;;;;;;;0.45;100.00;102913.72;5045945;28;20025;-63
2023/01/28 08:20:28;;;;;;;12.77;9.67;;;;;;;0.46;100.00;102909.53;5050951;28;20029;-63
2023/01/28 08:23:03;;;;;;;11.80;8.70;;;;;;;0.47;100.00;102911.31;5044713;28;20110;-63
2023/01/28 08:25:28;;;;;;;10.37;8.73;;;;;;;0.46;100.00;102923.19;5050471;28;20627;-63
2023/01/28 08:27:53;;;;;;;11.57;9.03;;;;;;;0.45;100.00;102929.03;5045106;28;20066;-63
2023/01/28 08:30:18;;;;;;;10.07;9.00;;;;;;;0.47;100.00;102927.56;5051752;28;20036;-63
2023/01/28 08:32:44;;;;;;;11.67;8.87;;;;;;;0.48;100.00;102928.47;5048095;28;20377;-63
2023/01/28 08:35:09;;;;;;;12.37;9.83;;;;;;;0.50;100.00;102932.09;5046297;28;20512;-63
2023/01/28 08:37:34;;;;;;;13.93;9.10;;;;;;;0.50;100.00;102931.19;5050862;28;20021;-63
2023/01/28 08:40:00;;;;;;;12.60;9.77;;;;;;;0.52;100.00;102940.78;5058903;28;20064;-63
2023/01/28 08:42:25;;;;;;;11.43;9.60;;;;;;;0.51;100.00;102938.06;5052625;28;20059;-63
2023/01/28 08:44:50;;;;;;;12.27;9.50;;;;;;;0.52;100.00;102942.47;5052617;28;20029;-63
2023/01/28 08:47:15;;;;;;;10.60;8.93;;;;;;;0.56;100.00;102947.13;5052768;28;20051;-63
2023/01/28 08:49:41;;;;;;;10.47;9.10;;;;;;;0.57;100.00;102939.66;5054031;28;20037;-63
2023/01/28 08:52:06;;;;;;;11.23;9.50;;;;;;;0.59;100.00;102942.38;5054002;28;20547;-63
2023/01/28 08:54:32;;;;;;;12.07;9.27;;;;;;;0.62;100.00;102942.69;5050402;28;20117;-63
2023/01/28 08:56:57;;;;;;;10.83;9.00;;;;;;;0.64;100.00;102941.22;5055790;28;20392;-63
2023/01/28 08:59:22;;;;;;;10.90;9.00;;;;;;;0.66;100.00;102951.56;5050240;28;20025;-63
2023/01/28 09:01:47;;;;;;;10.30;8.87;;;;;;;0.67;100.00;102955.94;5055363;28;20043;-63
2023/01/28 09:04:13;;;;;;;10.10;8.37;;;;;;;0.67;100.00;102956.84;5050312;28;20443;-63
2023/01/28 09:06:38;;;;;;;10.80;9.13;;;;;;;0.67;100.00;102954.28;5057966;28;20056;-63
2023/01/28 09:09:03;;;;;;;10.40;9.20;;;;;;;0.68;100.00;102948.47;5050116;28;20028;-63
2023/01/28 09:11:29;;;;;;;10.90;8.63;;;;;;;0.69;100.00;102955.38;5052799;28;20025;-63
2023/01/28 09:13:57;;;;;;;10.17;9.10;;;;;;;0.70;100.00;102957.16;5050455;28;20039;-63
2023/01/28 09:16:23;;;;;;;11.67;8.80;;;;;;;0.72;100.00;102959.88;5054834;28;20111;-63
2023/01/28 09:18:50;;;;;;;11.23;9.03;;;;;;;0.73;100.00;102964.25;5061566;28;20147;-63
2023/01/28 09:21:16;;;;;;;9.40;8.37;;;;;;;0.76;100.00;102971.31;5053659;28;20081;-62
2023/01/28 09:23:41;;;;;;;10.47;9.00;;;;;;;0.75;100.00;102972.06;5051969;28;20036;-62
2023/01/28 09:26:07;;;;;;;12.67;9.80;;;;;;;0.75;100.00;102974.63;5049204;28;20182;-63
2023/01/28 09:28:33;;;;;;;11.23;9.93;;;;;;;0.74;100.00;102967.72;5052737;28;20033;-63
2023/01/28 09:31:10;;;;;;;11.63;10.00;;;;;;;0.71;100.00;102970.84;5050680;28;20025;-63
2023/01/28 09:33:37;;;;;;;11.00;9.07;;;;;;;0.70;100.00;102967.38;5054406;28;20033;-62
2023/01/28 09:36:04;;;;;;;11.53;9.43;;;;;;;0.71;100.00;102974.31;5051431;28;20033;-62
2023/01/28 09:38:30;;;;;;;12.47;9.90;;;;;;;0.72;100.00;102985.41;5053946;28;20113;-63
2023/01/28 09:40:56;;;;;;;13.33;11.10;;;;;;;0.74;100.00;102975.38;5051216;28;20103;-63
2023/01/28 09:43:30;;;;;;;11.97;9.97;;;;;;;0.75;100.00;102980.66;5054232;28;20086;-63
2023/01/28 09:45:59;;;;;;;11.90;10.00;;;;;;;0.74;100.00;102988.16;5051565;28;20025;-63
2023/01/28 09:48:34;;;;;;;12.80;10.27;;;;;;;0.75;100.00;102989.94;5057772;28;20551;-63
2023/01/28 09:51:00;;;;;;;13.50;11.00;;;;;;;0.73;100.00;102981.22;5046532;28;20053;-62
2023/01/28 09:53:42;;;;;;;13.70;11.47;;;;;;;0.74;100.00;102977.94;5051710;28;20047;-63
2023/01/28 09:56:15;;;;;;;12.90;10.77;;;;;;;0.76;100.00;102989.19;5049740;28;20047;-63
2023/01/28 09:58:42;;;;;;;13.83;11.63;;;;;;;0.78;100.00;102995.38;5051449;28;20017;-62
2023/01/28 10:01:41;;;;;;;11.97;10.17;;;;;;;0.79;100.00;102990.41;5051859;28;20070;-62
2023/01/28 10:04:12;;;;;;;14.07;10.37;;;;;;;0.80;100.00;102997.34;5052460;28;20428;-63
2023/01/28 10:06:40;;;;;;;;;;;;;;;0.81;100.00;103005.94;5052429;28;20032;-62
2023/01/28 10:09:27;;;;;;;12.43;9.73;;;;;;;0.82;100.00;102998.44;5049090;28;20280;-62
2023/01/28 10:12:03;;;;;;;12.60;11.30;;;;;;;0.82;100.00;103002.63;5056366;28;20402;-61
2023/01/28 10:15:05;;;;;;;12.53;11.10;;;;;;;0.81;100.00;103011.91;5050327;28;20025;-62
2023/01/28 10:17:36;;;;;;;11.77;10.47;;;;;;;0.80;100.00;103010.13;5054741;28;20043;-63
2023/01/28 10:20:15;;;;;;;11.75;10.18;;;;;;;0.79;100.00;103004.84;5063498;28;20021;-63
2023/01/28 10:22:45;;;;;;;11.63;10.33;;;;;;;0.77;100.00;103012.34;5061302;28;20505;-63
2023/01/28 10:25:19;;;;;;;12.52;10.20;;;;;;;0.78;100.00;103015.78;5051733;28;20215;-62
2023/01/28 10:27:46;;;;;;;12.30;10.60;;;;;;;0.77;100.00;103016.53;5049392;28;20036;-62
2023/01/28 10:30:20;;;;;;;11.77;10.23;;;;;;;0.79;100.00;103012.50;5050895;28;20481;-62
2023/01/28 10:32:52;;;;;;;10.47;9.47;;;;;;;0.80;100.00;103012.66;5051572;28;20522;-62
2023/01/28 10:35:17;;;;;;;12.03;10.73;;;;;;;0.79;100.00;102997.19;5051038;28;20025;-63
2023/01/28 10:37:43;;;;;;;11.27;9.63;;;;;;;0.79;100.00;102995.53;5047828;28;20037;-62
2023/01/28 10:40:14;;;;;;;11.13;9.93;;;;;;;0.81;100.00;103000.81;5053017;28;20040;-63
2023/01/28 10:42:39;;;;;;;15.55;10.63;;;;;;;0.81;100.00;103001.69;5047961;28;20107;-62
2023/01/28 10:45:18;;;;;;;12.60;9.80;;;;;;;0.82;100.00;103005.16;5052711;28;20021;-62
2023/01/28 10:47:55;;;;;;;10.97;9.60;;;;;;;0.82;100.00;103007.72;5049824;28;20480;-63
2023/01/28 10:50:25;;;;;;;11.70;9.83;;;;;;;0.80;100.00;103001.53;5052299;28;20035;-63
2023/01/28 10:52:55;;;;;;;10.35;8.77;;;;;;;0.79;100.00;102990.41;5050336;28;20032;-63
2023/01/28 10:55:22;;;;;;;9.63;8.63;;;;;;;0.81;100.00;103001.69;5047752;28;20036;-63
2023/01/28 10:57:47;;;;;;;11.23;8.97;;;;;;;0.81;100.00;102996.59;5052419;28;20045;-63
2023/01/28 11:00:18;;;;;;;10.77;8.83;;;;;;;0.77;100.00;103002.13;5050974;28;20184;-63
2023/01/28 11:02:47;;;;;;;9.93;8.93;;;;;;;0.75;100.00;103001.06;5052988;28;20656;-63
2023/01/28 11:05:26;;;;;;;11.17;9.23;;;;;;;0.75;100.00;103002.69;5047148;28;20053;-62
2023/01/28 11:08:20;;;;;;;10.23;9.13;;;;;;;0.76;100.00;103004.50;5050070;28;20048;-63
2023/01/28 11:10:47;;;;;;;10.37;9.07;;;;;;;0.76;100.00;102996.84;5048591;28;20025;-63
2023/01/28 11:13:42;;;;;;;10.93;9.30;;;;;;;0.77;100.00;102998.66;5051316;28;21187;-62
2023/01/28 11:16:17;;;;;;;9.70;8.43;;;;;;;0.75;100.00;103002.69;5050258;28;20088;-63
2023/01/28 11:19:06;;;;;;;10.23;8.97;;;;;;;0.75;100.00;103000.16;5051680;28;20103;-62
2023/01/28 11:21:34;;;;;;;10.43;8.17;;;;;;;0.75;100.00;102993.41;5050319;28;20031;-62
2023/01/28 11:24:15;;;;;;;9.77;8.43;;;;;;;0.75;100.00;102989.94;5048193;28;20024;-63
2023/01/28 11:26:48;;;;;;;11.70;9.50;;;;;;;0.77;100.00;102980.81;5054029;28;20021;-63
2023/01/28 11:29:21;;;;;;;10.93;9.00;;;;;;;0.80;100.00;102979.47;5047622;28;20029;-63
2023/01/28 11:31:47;;;;;;;12.07;9.60;;;;;;;0.84;100.00;102962.84;5053423;28;20035;-63
2023/01/28 11:34:16;;;;;;;13.50;9.80;;;;;;;0.87;100.00;102965.72;5047312;28;20112;-62
2023/01/28 11:36:52;;;;;;;10.27;9.10;;;;;;;0.89;100.00;102959.13;5052204;28;20517;-63
2023/01/28 11:39:20;;;;;;;10.77;9.00;;;;;;;0.93;100.00;102965.47;5047195;28;20021;-63
2023/01/28 11:41:46;;;;;;;10.80;9.63;;;;;;;0.94;100.00;102963.06;5053388;28;20449;-63
2023/01/28 11:44:21;;;;;;;10.50;9.33;;;;;;;0.95;100.00;102959.75;5055507;28;20047;-62
2023/01/28 11:46:47;;;;;;;11.13;9.47;;;;;;;0.97;100.00;102961.59;5054600;28;20033;-62
2023/01/28 11:49:31;;;;;;;10.83;9.37;;;;;;;1.00;100.00;102961.91;5051420;28;20483;-63
2023/01/28 11:52:15;;;;;;;10.03;9.03;;;;;;;1.01;100.00;102939.06;5046349;28;20053;-63